createdAt,value
2019-03-01T00:00:50.266Z,95.60
2019-03-01T00:03:17.032Z,95.70
2019-03-01T00:06:11.499Z,96.20
2019-03-01T00:09:01.461Z,95.80
2019-03-01T00:11:37.836Z,95.90
2019-03-01T00:14:10.994Z,96.00
2019-03-01T00:16:56.781Z,96.60
2019-03-01T00:19:47.136Z,96.60
2019-03-01T00:22:26.520Z,96.30
2019-03-01T00:25:02.633Z,96.10
2019-03-01T00:27:52.207Z,96.40
2019-03-01T00:30:42.429Z,96.60
2019-03-01T00:33:18.460Z,96.40
2019-03-01T00:35:54.529Z,97.00
2019-03-01T00:38:42.833Z,96.60
2019-03-01T00:41:18.988Z,97.10
2019-03-01T00:44:24.504Z,97.00
2019-03-01T00:46:51.195Z,96.50
2019-03-01T00:49:18.105Z,96.30
2019-03-01T00:51:44.803Z,96.20
2019-03-01T00:54:11.429Z,96.40
2019-03-01T00:56:38.222Z,96.20
2019-03-01T00:59:04.895Z,96.50
2019-03-01T01:01:31.548Z,97.00
2019-03-01T01:03:58.261Z,96.90
2019-03-01T01:06:25.001Z,97.40
2019-03-01T01:08:51.715Z,97.40
2019-03-01T01:11:18.344Z,97.30
2019-03-01T01:13:45.200Z,97.80
2019-03-01T01:16:11.841Z,98.10
2019-03-01T01:18:39.296Z,98.20
2019-03-01T01:21:06.784Z,97.70
2019-03-01T01:23:33.663Z,97.30
2019-03-01T01:26:00.355Z,97.20
2019-03-01T01:28:27.148Z,96.80
2019-03-01T01:30:53.914Z,96.50
2019-03-01T01:33:20.516Z,96.40
2019-03-01T01:35:47.348Z,96.40
2019-03-01T01:38:13.994Z,96.10
2019-03-01T01:40:40.769Z,96.20
2019-03-01T01:43:07.711Z,96.50
2019-03-01T01:45:34.356Z,96.00
2019-03-01T01:48:01.011Z,95.80
2019-03-01T01:50:27.697Z,96.50
2019-03-01T01:52:54.354Z,96.10
2019-03-01T01:55:21.131Z,96.00
2019-03-01T01:57:47.788Z,96.20
2019-03-01T02:00:14.613Z,95.70
2019-03-01T02:02:41.251Z,95.70
2019-03-01T02:05:08.139Z,96.30
2019-03-01T02:07:35.265Z,96.90
2019-03-01T02:10:03.833Z,96.60
2019-03-01T02:12:30.469Z,96.60
2019-03-01T02:14:57.140Z,96.70
2019-03-01T02:17:23.815Z,96.60
2019-03-01T02:19:51.377Z,97.00
2019-03-01T02:22:18.154Z,96.80
2019-03-01T02:27:27.690Z,97.60
2019-03-01T02:29:54.624Z,97.90
2019-03-01T02:32:39.328Z,97.60
2019-03-01T02:35:08.767Z,97.20
2019-03-01T02:37:35.529Z,96.00
2019-03-01T02:40:05.803Z,97.20
2019-03-01T02:42:32.489Z,96.60
2019-03-01T02:44:59.103Z,97.10
2019-03-01T02:47:25.725Z,97.20
2019-03-01T02:49:52.416Z,97.30
2019-03-01T02:52:19.045Z,97.70
2019-03-01T02:54:45.724Z,97.60
2019-03-01T02:57:12.354Z,97.10
2019-03-01T02:59:39.030Z,97.30
2019-03-01T03:02:05.653Z,97.40
2019-03-01T03:04:32.308Z,97.80
2019-03-01T03:07:00.876Z,97.70
2019-03-01T03:09:28.361Z,97.30
2019-03-01T03:11:55.009Z,96.80
2019-03-01T03:14:21.669Z,97.10
2019-03-01T03:16:48.342Z,96.80
2019-03-01T03:19:15.091Z,97.50
2019-03-01T03:21:43.655Z,97.60
2019-03-01T03:24:10.292Z,98.00
2019-03-01T03:26:37.080Z,97.50
2019-03-01T03:29:03.708Z,96.70
2019-03-01T03:31:30.365Z,96.90
2019-03-01T03:33:57.014Z,97.10
2019-03-01T03:36:23.691Z,96.80
2019-03-01T03:38:50.316Z,96.30
2019-03-01T03:41:17.073Z,96.50
2019-03-01T03:43:43.721Z,97.40
2019-03-01T03:46:10.413Z,97.60
2019-03-01T03:48:37.030Z,97.00
2019-03-01T03:51:05.194Z,97.10
2019-03-01T03:53:31.856Z,97.20
2019-03-01T03:55:58.637Z,97.30
2019-03-01T03:58:25.374Z,96.60
2019-03-01T04:00:52.007Z,96.40
2019-03-01T04:03:18.877Z,97.10
2019-03-01T04:05:45.523Z,98.30
2019-03-01T04:08:12.300Z,97.60
2019-03-01T04:10:38.934Z,97.10
2019-03-01T04:13:05.650Z,97.00
2019-03-01T04:15:32.374Z,97.50
2019-03-01T04:17:59.157Z,97.70
2019-03-01T04:20:25.810Z,97.70
2019-03-01T04:22:52.557Z,97.90
2019-03-01T04:25:19.206Z,97.50
2019-03-01T04:27:45.865Z,98.50
2019-03-01T04:30:18.578Z,98.50
2019-03-01T04:32:45.480Z,98.60
2019-03-01T04:35:12.715Z,98.60
2019-03-01T04:37:39.374Z,98.60
2019-03-01T04:40:08.693Z,98.50
2019-03-01T04:42:35.413Z,98.30
2019-03-01T04:45:02.830Z,98.40
2019-03-01T04:47:29.736Z,98.30
2019-03-01T04:49:56.505Z,98.20
2019-03-01T04:52:33.380Z,98.30
2019-03-01T04:55:00.380Z,98.50
2019-03-01T04:57:27.096Z,98.40
2019-03-01T04:59:53.836Z,98.30
2019-03-01T05:02:20.524Z,98.60
2019-03-01T05:04:47.270Z,98.20
2019-03-01T05:07:13.892Z,98.00
2019-03-01T05:09:40.656Z,98.20
2019-03-01T05:12:07.313Z,97.80
2019-03-01T05:14:34.101Z,98.00
2019-03-01T05:17:00.764Z,98.30
2019-03-01T05:19:27.416Z,98.50
2019-03-01T05:21:54.056Z,98.10
2019-03-01T05:24:20.729Z,98.20
2019-03-01T05:26:47.413Z,98.20
2019-03-01T05:29:14.116Z,97.70
2019-03-01T05:31:40.736Z,97.50
2019-03-01T05:34:07.409Z,97.70
2019-03-01T05:36:34.045Z,97.30
2019-03-01T05:39:00.677Z,97.90
2019-03-01T05:41:27.338Z,97.90
2019-03-01T05:43:53.980Z,97.70
2019-03-01T05:46:20.805Z,98.20
2019-03-01T05:48:47.423Z,98.50
2019-03-01T05:51:14.118Z,98.80
2019-03-01T05:53:40.771Z,98.90
2019-03-01T05:56:07.470Z,98.60
2019-03-01T05:58:35.888Z,98.80
2019-03-01T06:01:09.348Z,98.20
2019-03-01T06:04:02.277Z,97.70
2019-03-01T06:06:50.556Z,97.60
2019-03-01T06:09:35.632Z,97.50
2019-03-01T06:12:05.977Z,97.40
2019-03-01T06:14:44.854Z,97.50
2019-03-01T06:17:21.341Z,98.00
2019-03-01T06:19:51.578Z,97.80
2019-03-01T06:22:34.125Z,98.00
2019-03-01T06:25:19.772Z,98.10
2019-03-01T06:28:08.399Z,97.90
2019-03-01T06:30:58.138Z,97.20
2019-03-01T06:33:46.725Z,97.50
2019-03-01T06:36:31.812Z,97.60
2019-03-01T06:39:21.797Z,97.60
2019-03-01T06:42:06.048Z,96.90
2019-03-01T06:44:54.081Z,97.20
2019-03-01T06:47:27.363Z,97.00
2019-03-01T06:49:58.669Z,96.80
2019-03-01T06:52:25.438Z,97.40
2019-03-01T06:54:52.201Z,97.80
2019-03-01T06:57:18.865Z,97.40
2019-03-01T06:59:45.620Z,97.20
2019-03-01T07:02:16.737Z,97.20
2019-03-01T07:04:43.487Z,98.00
2019-03-01T07:07:10.197Z,97.80
2019-03-01T07:09:36.837Z,98.00
2019-03-01T07:12:03.578Z,97.50
2019-03-01T07:14:30.422Z,97.30
2019-03-01T07:16:57.268Z,97.70
2019-03-01T07:19:23.936Z,97.60
2019-03-01T07:21:52.370Z,98.10
2019-03-01T07:24:19.260Z,98.30
2019-03-01T07:26:46.069Z,98.00
2019-03-01T07:29:12.888Z,98.20
2019-03-01T07:31:39.755Z,99.00
2019-03-01T07:34:06.540Z,99.10
2019-03-01T07:36:33.293Z,98.90
2019-03-01T07:39:00.011Z,98.90
2019-03-01T07:41:26.754Z,99.40
2019-03-01T07:43:53.465Z,99.10
2019-03-01T07:46:20.897Z,98.90
2019-03-01T07:48:47.763Z,98.70
2019-03-01T07:51:14.501Z,98.70
2019-03-01T07:53:42.142Z,98.50
2019-03-01T07:56:08.922Z,98.70
2019-03-01T07:58:35.840Z,99.10
2019-03-01T08:01:02.853Z,99.10
2019-03-01T08:03:29.529Z,98.30
2019-03-01T08:05:56.336Z,98.80
2019-03-01T08:08:23.007Z,98.60
2019-03-01T08:10:49.765Z,98.50
2019-03-01T08:13:18.422Z,98.10
2019-03-01T08:15:46.000Z,98.60
2019-03-01T08:18:12.918Z,98.70
2019-03-01T08:20:39.665Z,98.10
2019-03-01T08:23:06.556Z,98.90
2019-03-01T08:25:33.333Z,98.80
2019-03-01T08:28:00.150Z,99.10
2019-03-01T08:30:26.888Z,99.00
2019-03-01T08:32:53.573Z,98.90
2019-03-01T08:35:20.237Z,99.10
2019-03-01T08:37:49.783Z,99.00
2019-03-01T08:40:16.511Z,98.50
2019-03-01T08:42:43.286Z,99.10
2019-03-01T08:45:14.613Z,98.80
2019-03-01T08:47:41.273Z,98.80
2019-03-01T08:50:11.645Z,98.20
2019-03-01T08:52:40.452Z,97.80
2019-03-01T08:55:09.805Z,98.20
2019-03-01T08:57:43.934Z,96.80
2019-03-01T09:00:10.866Z,97.00
2019-03-01T09:02:37.754Z,97.60
2019-03-01T09:05:08.746Z,97.90
2019-03-01T09:07:35.996Z,98.30
2019-03-01T09:10:05.549Z,97.90
2019-03-01T09:12:32.290Z,97.90
2019-03-01T09:15:00.272Z,97.70
2019-03-01T09:17:27.037Z,97.70
2019-03-01T09:19:53.652Z,98.10
2019-03-01T09:22:20.373Z,97.60
2019-03-01T09:24:47.048Z,97.70
2019-03-01T09:27:15.677Z,97.90
2019-03-01T09:29:42.356Z,97.70
2019-03-01T09:32:09.024Z,97.50
2019-03-01T09:34:35.649Z,97.30
2019-03-01T09:37:02.388Z,96.80
2019-03-01T09:39:28.960Z,96.20
2019-03-01T09:42:02.997Z,96.40
2019-03-01T09:44:24.092Z,96.30
2019-03-01T09:46:50.780Z,96.50
2019-03-01T09:49:17.401Z,95.90
2019-03-01T09:51:49.106Z,95.80
2019-03-01T09:54:12.538Z,95.80
2019-03-01T09:56:39.284Z,95.20
2019-03-01T09:59:05.993Z,95.00
2019-03-01T10:01:32.604Z,94.70
2019-03-01T10:03:59.292Z,95.30
2019-03-01T10:06:25.929Z,94.50
2019-03-01T10:08:52.604Z,95.00
2019-03-01T10:11:19.308Z,95.20
2019-03-01T10:13:46.501Z,94.60
2019-03-01T10:16:13.240Z,93.80
2019-03-01T10:18:39.935Z,94.20
2019-03-01T10:21:06.575Z,94.30
2019-03-01T10:23:33.253Z,94.40
2019-03-01T10:25:59.900Z,94.50
2019-03-01T10:28:26.564Z,94.50
2019-03-01T10:30:53.298Z,94.20
2019-03-01T10:33:19.914Z,94.30
2019-03-01T10:35:46.695Z,94.20
2019-03-01T10:38:14.607Z,94.40
2019-03-01T10:40:41.217Z,95.10
2019-03-01T10:43:07.851Z,94.80
2019-03-01T10:45:34.547Z,94.50
2019-03-01T10:48:01.208Z,94.30
2019-03-01T10:50:27.835Z,94.10
2019-03-01T10:52:54.521Z,94.80
2019-03-01T10:55:21.246Z,94.60
2019-03-01T10:57:48.081Z,95.30
2019-03-01T11:00:21.375Z,95.20
2019-03-01T11:02:48.295Z,94.80
2019-03-01T11:05:14.917Z,95.00
2019-03-01T11:07:41.697Z,95.10
2019-03-01T11:10:15.177Z,94.90
2019-03-01T11:12:42.083Z,95.20
2019-03-01T11:15:10.960Z,94.50
2019-03-01T11:17:38.158Z,94.20
2019-03-01T11:20:11.528Z,94.90
2019-03-01T11:22:38.633Z,95.00
2019-03-01T11:25:08.700Z,94.40
2019-03-01T11:27:35.412Z,94.20
2019-03-01T11:30:04.269Z,94.00
2019-03-01T11:32:30.948Z,94.30
2019-03-01T11:34:57.589Z,93.70
2019-03-01T11:37:24.257Z,93.00
2019-03-01T11:39:50.885Z,92.60
2019-03-01T11:42:17.684Z,92.90
2019-03-01T11:44:44.330Z,92.50
2019-03-01T11:47:11.126Z,92.10
2019-03-01T11:49:37.769Z,92.00
2019-03-01T11:52:04.410Z,91.90
2019-03-01T11:54:33.096Z,92.20
2019-03-01T11:56:59.847Z,91.90
2019-03-01T11:59:26.662Z,91.90
2019-03-01T12:01:53.538Z,93.00
2019-03-01T12:04:20.360Z,92.40
2019-03-01T12:06:47.144Z,92.40
2019-03-01T12:09:13.952Z,92.40
2019-03-01T12:11:40.624Z,92.50
2019-03-01T12:14:07.296Z,91.40
2019-03-01T12:16:33.978Z,92.40
2019-03-01T12:19:00.631Z,92.00
2019-03-01T12:21:27.389Z,92.00
2019-03-01T12:23:54.106Z,92.20
2019-03-01T12:26:21.028Z,92.20
2019-03-01T12:28:47.699Z,92.70
2019-03-01T12:31:14.428Z,92.50
2019-03-01T12:33:41.214Z,92.10
2019-03-01T12:36:07.887Z,91.60
2019-03-01T12:38:34.553Z,92.40
2019-03-01T12:41:01.195Z,92.10
2019-03-01T12:43:27.969Z,92.40
2019-03-01T12:45:54.828Z,92.60
2019-03-01T12:48:21.513Z,92.90
2019-03-01T12:50:48.554Z,93.50
2019-03-01T12:53:15.344Z,93.00
2019-03-01T12:55:41.977Z,93.30
2019-03-01T12:58:08.651Z,93.50
2019-03-01T13:00:37.376Z,93.90
2019-03-01T13:03:08.868Z,93.90
2019-03-01T13:05:32.597Z,94.30
2019-03-01T13:07:59.295Z,94.50
2019-03-01T13:10:40.347Z,95.00
2019-03-01T13:13:08.110Z,95.00
2019-03-01T13:15:35.342Z,95.50
2019-03-01T13:18:03.436Z,95.80
2019-03-01T13:20:33.634Z,95.70
2019-03-01T13:23:01.054Z,96.10
2019-03-01T13:25:29.517Z,95.90
2019-03-01T13:27:55.686Z,96.70
2019-03-01T13:30:25.008Z,96.30
2019-03-01T13:32:51.716Z,96.40
2019-03-01T13:35:22.200Z,96.20
2019-03-01T13:37:47.555Z,96.10
2019-03-01T13:40:20.808Z,96.20
2019-03-01T13:42:47.205Z,96.10
2019-03-01T13:45:19.918Z,95.90
2019-03-01T13:47:46.555Z,95.50
2019-03-01T13:50:17.694Z,95.80
2019-03-01T13:52:44.489Z,95.70
2019-03-01T13:55:12.210Z,95.70
2019-03-01T13:57:38.952Z,95.00
2019-03-01T14:00:09.320Z,94.50
2019-03-01T14:02:36.008Z,94.60
2019-03-01T14:05:03.425Z,94.40
2019-03-01T14:07:30.105Z,94.20
2019-03-01T14:09:56.825Z,94.70
2019-03-01T14:12:24.171Z,94.50
2019-03-01T14:14:50.993Z,94.20
2019-03-01T14:17:17.771Z,94.50
2019-03-01T14:19:44.433Z,94.30
2019-03-01T14:22:13.836Z,94.60
2019-03-01T14:24:39.652Z,94.80
2019-03-01T14:27:07.368Z,94.90
2019-03-01T14:29:34.804Z,94.80
2019-03-01T14:32:01.610Z,95.90
2019-03-01T14:34:28.284Z,96.20
2019-03-01T14:36:55.040Z,97.20
2019-03-01T14:39:21.684Z,97.00
2019-03-01T14:41:48.354Z,96.80
2019-03-01T14:44:15.090Z,97.00
2019-03-01T14:46:41.932Z,96.50
2019-03-01T14:49:08.700Z,96.60
2019-03-01T14:51:35.332Z,96.10
2019-03-01T14:54:01.976Z,96.10
2019-03-01T14:56:34.910Z,96.10
2019-03-01T14:59:22.112Z,95.90
2019-03-01T15:01:55.111Z,96.00
2019-03-01T15:04:21.747Z,96.30
2019-03-01T15:06:51.405Z,96.10
2019-03-01T15:09:20.207Z,96.30
2019-03-01T15:11:45.436Z,96.00
2019-03-01T15:14:13.622Z,95.70
2019-03-01T15:16:43.248Z,96.10
2019-03-01T15:19:09.405Z,96.10
2019-03-01T15:21:37.572Z,95.70
2019-03-01T15:24:04.794Z,95.60
2019-03-01T15:26:31.802Z,95.40
2019-03-01T15:28:58.954Z,95.60
2019-03-01T15:31:26.572Z,95.30
2019-03-01T15:33:53.203Z,95.10
2019-03-01T15:36:19.951Z,95.40
2019-03-01T15:38:46.600Z,95.80
2019-03-01T15:41:13.264Z,96.00
2019-03-01T15:43:40.109Z,95.20
2019-03-01T15:46:06.805Z,95.10
2019-03-01T15:48:34.334Z,95.20
2019-03-01T15:51:02.537Z,95.10
2019-03-01T15:53:30.008Z,95.10
2019-03-01T15:55:57.144Z,96.70
2019-03-01T15:58:23.881Z,97.10
2019-03-01T16:00:50.501Z,97.00
2019-03-01T16:03:18.092Z,96.50
2019-03-01T16:05:44.874Z,96.40
2019-03-01T16:08:11.628Z,96.70
2019-03-01T16:10:38.324Z,96.20
2019-03-01T16:13:08.338Z,96.50
2019-03-01T16:15:34.846Z,96.20
2019-03-01T16:18:02.004Z,96.30
2019-03-01T16:20:29.275Z,96.70
2019-03-01T16:22:56.033Z,96.20
2019-03-01T16:25:23.036Z,97.20
2019-03-01T16:27:50.658Z,95.90
2019-03-01T16:30:19.041Z,95.40
2019-03-01T16:32:49.552Z,95.60
2019-03-01T16:35:16.578Z,95.60
2019-03-01T16:37:46.155Z,95.50
2019-03-01T16:40:13.827Z,94.90
2019-03-01T16:42:41.201Z,95.70
2019-03-01T16:45:11.722Z,95.40
2019-03-01T16:47:41.956Z,95.40
2019-03-01T16:50:11.990Z,95.40
2019-03-01T16:52:38.760Z,96.00
2019-03-01T16:55:08.993Z,95.50
2019-03-01T16:57:36.941Z,96.00
2019-03-01T17:00:14.676Z,96.40
2019-03-01T17:02:42.033Z,95.90
2019-03-01T17:05:11.493Z,96.10
2019-03-01T17:07:38.157Z,96.10
2019-03-01T17:10:08.797Z,96.20
2019-03-01T17:12:35.460Z,96.00
2019-03-01T17:15:03.496Z,96.00
2019-03-01T17:17:33.118Z,96.80
2019-03-01T17:20:02.128Z,96.20
2019-03-01T17:22:27.605Z,96.40
2019-03-01T17:24:54.336Z,96.60
2019-03-01T17:27:22.792Z,97.40
2019-03-01T17:29:49.481Z,96.80
2019-03-01T17:32:16.177Z,96.50
2019-03-01T17:34:42.865Z,96.20
2019-03-01T17:37:09.744Z,96.20
2019-03-01T17:39:36.754Z,95.90
2019-03-01T17:42:03.602Z,96.70
2019-03-01T17:44:30.380Z,97.00
2019-03-01T17:46:58.702Z,96.30
2019-03-01T17:49:25.433Z,96.00
2019-03-01T17:51:53.451Z,96.00
2019-03-01T17:54:22.252Z,96.50
2019-03-01T17:56:49.130Z,96.20
2019-03-01T17:59:15.884Z,96.70
2019-03-01T18:01:42.552Z,96.60
2019-03-01T18:04:09.224Z,96.60
2019-03-01T18:06:35.888Z,96.50
2019-03-01T18:09:04.127Z,96.40
2019-03-01T18:11:30.800Z,96.60
2019-03-01T18:14:00.766Z,96.40
2019-03-01T18:16:25.980Z,96.50
2019-03-01T18:18:53.013Z,95.30
2019-03-01T18:21:21.027Z,95.80
2019-03-01T18:23:47.653Z,96.10
2019-03-01T18:26:14.380Z,95.60
2019-03-01T18:28:41.051Z,94.90
2019-03-01T18:31:07.721Z,94.70
2019-03-01T18:33:34.417Z,94.40
2019-03-01T18:36:01.061Z,94.00
2019-03-01T18:38:31.376Z,94.40
2019-03-01T18:40:56.283Z,94.00
2019-03-01T18:43:22.982Z,93.90
2019-03-01T18:45:49.605Z,94.10
2019-03-01T18:48:16.341Z,94.20
2019-03-01T18:50:43.003Z,94.70
2019-03-01T18:53:09.635Z,94.50
2019-03-01T18:55:36.272Z,94.30
2019-03-01T18:58:22.692Z,94.70
2019-03-01T19:00:51.281Z,97.50
2019-03-01T19:03:17.906Z,96.10
2019-03-01T19:05:44.613Z,95.70
2019-03-01T19:08:11.247Z,96.20
2019-03-01T19:10:37.926Z,95.70
2019-03-01T19:13:04.569Z,94.20
2019-03-01T19:15:31.343Z,94.00
2019-03-01T19:17:57.972Z,94.10
2019-03-01T19:20:30.377Z,94.40
2019-03-01T19:22:57.030Z,94.40
2019-03-01T19:25:25.461Z,95.10
2019-03-01T19:27:52.220Z,94.90
2019-03-01T19:30:23.416Z,95.00
2019-03-01T19:32:50.201Z,94.70
2019-03-01T19:35:17.790Z,93.50
2019-03-01T19:37:45.833Z,93.00
2019-03-01T19:40:14.940Z,93.30
2019-03-01T19:42:41.744Z,92.80
2019-03-01T19:45:10.897Z,93.40
2019-03-01T19:47:37.603Z,93.50
2019-03-01T19:50:08.129Z,92.40
2019-03-01T19:52:35.145Z,93.50
2019-03-01T19:55:03.038Z,92.90
2019-03-01T19:57:29.653Z,93.10
2019-03-01T19:59:56.347Z,93.50
2019-03-01T20:02:23.055Z,93.20
2019-03-01T20:04:52.544Z,92.70
2019-03-01T20:07:19.796Z,93.20
2019-03-01T20:09:46.901Z,92.60
2019-03-01T20:12:13.592Z,92.30
2019-03-01T20:14:40.396Z,92.20
2019-03-01T20:17:07.037Z,92.00
2019-03-01T20:19:33.700Z,92.10
2019-03-01T20:22:00.340Z,93.30
2019-03-01T20:24:27.022Z,94.10
2019-03-01T20:26:53.687Z,94.40
2019-03-01T20:29:20.412Z,95.70
2019-03-01T20:31:47.106Z,95.90
2019-03-01T20:34:13.731Z,96.80
2019-03-01T20:36:42.293Z,96.20
2019-03-01T20:39:11.745Z,95.70
2019-03-01T20:41:40.128Z,95.70
2019-03-01T20:44:05.880Z,95.80
2019-03-01T20:46:32.909Z,95.30
2019-03-01T20:49:00.714Z,95.00
2019-03-01T20:51:28.195Z,95.00
2019-03-01T20:53:54.925Z,95.40
2019-03-01T20:56:21.561Z,95.20
2019-03-01T20:58:48.249Z,95.40
2019-03-01T21:01:14.913Z,95.70
2019-03-01T21:03:41.572Z,95.30
2019-03-01T21:06:08.236Z,95.00
2019-03-01T21:08:34.912Z,95.20
2019-03-01T21:11:01.525Z,95.00
2019-03-01T21:13:28.188Z,94.80
2019-03-01T21:15:54.923Z,95.60
2019-03-01T21:18:22.536Z,95.10
2019-03-01T21:20:50.607Z,94.70
2019-03-01T21:23:17.687Z,94.40
2019-03-01T21:25:44.500Z,94.30
2019-03-01T21:28:11.113Z,93.90
2019-03-01T21:30:37.756Z,94.10
2019-03-01T21:33:04.462Z,94.10
2019-03-01T21:35:31.110Z,94.50
2019-03-01T21:37:57.733Z,94.90
2019-03-01T21:40:24.902Z,94.80
2019-03-01T21:42:52.946Z,94.70
2019-03-01T21:45:22.606Z,94.90
2019-03-01T21:47:49.515Z,94.50
2019-03-01T21:50:16.188Z,94.30
2019-03-01T21:52:42.836Z,94.20
2019-03-01T21:55:12.193Z,94.80
2019-03-01T21:57:38.813Z,94.80
2019-03-01T22:00:09.303Z,94.40
2019-03-01T22:02:36.030Z,94.00
2019-03-01T22:05:05.791Z,94.40
2019-03-01T22:07:33.679Z,94.30
2019-03-01T22:10:01.020Z,94.50
2019-03-01T22:12:27.660Z,94.30
2019-03-01T22:14:54.307Z,94.00
2019-03-01T22:17:21.015Z,93.50
2019-03-01T22:19:47.651Z,93.50
2019-03-01T22:22:14.327Z,92.90
2019-03-01T22:24:40.970Z,93.00
2019-03-01T22:27:07.640Z,93.30
2019-03-01T22:29:34.286Z,94.10
2019-03-01T22:32:00.908Z,93.50
2019-03-01T22:34:30.893Z,94.70
2019-03-01T22:36:56.005Z,94.10
2019-03-01T22:39:22.700Z,93.80
2019-03-01T22:41:49.432Z,93.60
2019-03-01T22:44:16.120Z,93.50
2019-03-01T22:46:42.774Z,94.10
2019-03-01T22:49:09.437Z,95.00
2019-03-01T22:51:36.080Z,94.30
2019-03-01T22:54:02.820Z,94.50
2019-03-01T22:56:29.453Z,94.40
2019-03-01T22:58:56.420Z,94.10
2019-03-01T23:01:26.085Z,93.90
2019-03-01T23:03:54.915Z,93.80
2019-03-01T23:06:21.625Z,93.70
2019-03-01T23:08:48.276Z,94.30
2019-03-01T23:11:14.920Z,93.70
2019-03-01T23:13:41.576Z,94.20
2019-03-01T23:16:08.207Z,94.40
2019-03-01T23:18:37.591Z,94.10
2019-03-01T23:21:03.413Z,94.40
2019-03-01T23:23:30.032Z,94.30
2019-03-01T23:25:56.697Z,94.40
2019-03-01T23:28:23.321Z,94.80
2019-03-01T23:30:49.975Z,94.00
2019-03-01T23:33:16.609Z,94.90
2019-03-01T23:35:43.476Z,95.10
2019-03-01T23:38:11.497Z,94.30
2019-03-01T23:40:38.540Z,93.50
2019-03-01T23:43:05.195Z,93.20
2019-03-01T23:45:31.822Z,93.70
2019-03-01T23:47:58.585Z,92.60
2019-03-01T23:50:25.236Z,93.00
2019-03-01T23:52:54.808Z,93.10
2019-03-01T23:55:21.679Z,92.90
2019-03-01T23:57:48.295Z,92.80
